Terminal Aerodrome Forecast
Issued by NWS Twin Cities, MN

Home | Current Version | Previous Version | Text Only | Print | Product List | Glossary Off
Versions: 1 2 3 4 5 6 7 8 9 10 11 12 13 14 15 16 17 18 19 20 21 22

461
FTUS43 KMPX 100529
TAFSTC
TAF
KSTC 100529Z 1006/1106 22006KT P6SM FEW020 SCT200
     FM101000 31010KT P6SM BKN025
     FM101600 32011KT P6SM SCT025 OVC050
     FM102200 31010KT P6SM SCT015 BKN020
     FM110400 21007KT 4SM -SN OVC015=

USA.gov is the U.S. government's official web portal to all federal, state and local government web resources and services.